sensor_id;sensor_type;location;lat;lon;timestamp;P1;durP1;ratioP1;P2;durP2;ratioP2
40635;SDS011;26642;55.766;37.828;2024-03-23T00:52:30;18.52;;;12.80;;
40635;SDS011;26642;55.766;37.828;2024-03-23T00:54:56;21.83;;;13.57;;
40635;SDS011;26642;55.766;37.828;2024-03-23T00:57:23;18.52;;;12.15;;
40635;SDS011;26642;55.766;37.828;2024-03-23T00:59:49;18.95;;;13.27;;
40635;SDS011;26642;55.766;37.828;2024-03-23T01:02:15;19.25;;;12.98;;
40635;SDS011;26642;55.766;37.828;2024-03-23T01:04:42;18.33;;;13.27;;
40635;SDS011;26642;55.766;37.828;2024-03-23T01:07:08;18.23;;;13.15;;
40635;SDS011;26642;55.766;37.828;2024-03-23T01:09:34;17.33;;;12.48;;
40635;SDS011;26642;55.766;37.828;2024-03-23T01:12:04;19.55;;;12.93;;
40635;SDS011;26642;55.766;37.828;2024-03-23T01:14:30;20.60;;;13.48;;
40635;SDS011;26642;55.766;37.828;2024-03-23T01:16:56;22.08;;;13.90;;
40635;SDS011;26642;55.766;37.828;2024-03-23T01:19:23;19.58;;;13.48;;
40635;SDS011;26642;55.766;37.828;2024-03-23T01:21:49;18.45;;;12.88;;
40635;SDS011;26642;55.766;37.828;2024-03-23T01:24:15;19.10;;;13.10;;
40635;SDS011;26642;55.766;37.828;2024-03-23T01:26:42;20.88;;;13.45;;
40635;SDS011;26642;55.766;37.828;2024-03-23T01:29:08;18.38;;;13.15;;
40635;SDS011;26642;55.766;37.828;2024-03-23T01:31:34;18.17;;;12.80;;
40635;SDS011;26642;55.766;37.828;2024-03-23T01:34:01;18.73;;;12.63;;
40635;SDS011;26642;55.766;37.828;2024-03-23T01:36:28;16.80;;;12.45;;
40635;SDS011;26642;55.766;37.828;2024-03-23T01:38:54;20.38;;;13.43;;
40635;SDS011;26642;55.766;37.828;2024-03-23T01:41:21;18.40;;;12.68;;
40635;SDS011;26642;55.766;37.828;2024-03-23T01:43:47;18.80;;;13.55;;
40635;SDS011;26642;55.766;37.828;2024-03-23T01:46:13;18.85;;;12.98;;
40635;SDS011;26642;55.766;37.828;2024-03-23T01:48:40;20.45;;;12.73;;
40635;SDS011;26642;55.766;37.828;2024-03-23T01:51:06;19.27;;;13.02;;
40635;SDS011;26642;55.766;37.828;2024-03-23T01:53:33;19.48;;;13.25;;
40635;SDS011;26642;55.766;37.828;2024-03-23T01:55:59;18.88;;;13.18;;
40635;SDS011;26642;55.766;37.828;2024-03-23T01:58:25;18.92;;;12.90;;
40635;SDS011;26642;55.766;37.828;2024-03-23T02:00:52;18.70;;;12.77;;
40635;SDS011;26642;55.766;37.828;2024-03-23T02:03:21;20.23;;;13.45;;
40635;SDS011;26642;55.766;37.828;2024-03-23T02:05:49;21.73;;;13.07;;
40635;SDS011;26642;55.766;37.828;2024-03-23T02:08:16;19.30;;;12.70;;
40635;SDS011;26642;55.766;37.828;2024-03-23T02:10:43;20.55;;;13.48;;
40635;SDS011;26642;55.766;37.828;2024-03-23T02:13:10;19.83;;;12.30;;
40635;SDS011;26642;55.766;37.828;2024-03-23T02:15:36;18.67;;;12.63;;
40635;SDS011;26642;55.766;37.828;2024-03-23T02:18:03;18.83;;;12.20;;
40635;SDS011;26642;55.766;37.828;2024-03-23T02:20:29;17.45;;;11.50;;
40635;SDS011;26642;55.766;37.828;2024-03-23T02:22:56;17.08;;;12.45;;
40635;SDS011;26642;55.766;37.828;2024-03-23T02:25:22;16.38;;;12.25;;
40635;SDS011;26642;55.766;37.828;2024-03-23T02:27:48;17.42;;;12.18;;
40635;SDS011;26642;55.766;37.828;2024-03-23T02:30:15;17.17;;;11.95;;
40635;SDS011;26642;55.766;37.828;2024-03-23T02:32:41;18.02;;;12.35;;
40635;SDS011;26642;55.766;37.828;2024-03-23T02:35:07;19.05;;;12.85;;
40635;SDS011;26642;55.766;37.828;2024-03-23T02:37:34;17.90;;;12.48;;
40635;SDS011;26642;55.766;37.828;2024-03-23T02:40:00;19.55;;;13.10;;
40635;SDS011;26642;55.766;37.828;2024-03-23T02:42:26;17.95;;;12.85;;
40635;SDS011;26642;55.766;37.828;2024-03-23T02:44:53;18.40;;;12.55;;
40635;SDS011;26642;55.766;37.828;2024-03-23T02:47:19;16.95;;;12.52;;
40635;SDS011;26642;55.766;37.828;2024-03-23T02:49:46;18.55;;;12.40;;
40635;SDS011;26642;55.766;37.828;2024-03-23T02:52:12;18.02;;;12.18;;
40635;SDS011;26642;55.766;37.828;2024-03-23T02:54:38;18.13;;;12.48;;
40635;SDS011;26642;55.766;37.828;2024-03-23T02:57:07;16.92;;;11.48;;
40635;SDS011;26642;55.766;37.828;2024-03-23T02:59:33;18.15;;;12.68;;
40635;SDS011;26642;55.766;37.828;2024-03-23T03:02:00;16.05;;;11.77;;
40635;SDS011;26642;55.766;37.828;2024-03-23T03:04:26;14.77;;;11.30;;
40635;SDS011;26642;55.766;37.828;2024-03-23T03:06:53;16.15;;;11.77;;
40635;SDS011;26642;55.766;37.828;2024-03-23T03:09:19;16.60;;;12.40;;
40635;SDS011;26642;55.766;37.828;2024-03-23T03:11:46;16.90;;;11.70;;
40635;SDS011;26642;55.766;37.828;2024-03-23T03:14:12;16.88;;;11.57;;
40635;SDS011;26642;55.766;37.828;2024-03-23T03:16:39;18.48;;;12.18;;
40635;SDS011;26642;55.766;37.828;2024-03-23T03:19:05;18.08;;;12.75;;
40635;SDS011;26642;55.766;37.828;2024-03-23T03:21:32;14.90;;;11.25;;
40635;SDS011;26642;55.766;37.828;2024-03-23T03:23:58;17.13;;;11.48;;
40635;SDS011;26642;55.766;37.828;2024-03-23T03:26:24;16.40;;;11.88;;
40635;SDS011;26642;55.766;37.828;2024-03-23T03:28:50;16.83;;;11.80;;
40635;SDS011;26642;55.766;37.828;2024-03-23T03:31:17;16.25;;;11.82;;
40635;SDS011;26642;55.766;37.828;2024-03-23T03:33:44;18.20;;;12.05;;
40635;SDS011;26642;55.766;37.828;2024-03-23T03:36:10;16.35;;;11.70;;
40635;SDS011;26642;55.766;37.828;2024-03-23T03:38:37;16.80;;;11.73;;
40635;SDS011;26642;55.766;37.828;2024-03-23T03:41:06;16.15;;;11.60;;
40635;SDS011;26642;55.766;37.828;2024-03-23T03:43:33;15.05;;;11.23;;
40635;SDS011;26642;55.766;37.828;2024-03-23T03:46:00;17.40;;;11.75;;
40635;SDS011;26642;55.766;37.828;2024-03-23T03:48:26;16.45;;;11.38;;
40635;SDS011;26642;55.766;37.828;2024-03-23T03:50:53;17.35;;;11.30;;
40635;SDS011;26642;55.766;37.828;2024-03-23T03:53:19;16.17;;;11.18;;
40635;SDS011;26642;55.766;37.828;2024-03-23T03:55:46;17.23;;;11.52;;
40635;SDS011;26642;55.766;37.828;2024-03-23T03:58:12;16.55;;;11.65;;
40635;SDS011;26642;55.766;37.828;2024-03-23T04:00:39;16.20;;;11.30;;
40635;SDS011;26642;55.766;37.828;2024-03-23T04:03:05;17.08;;;11.65;;
40635;SDS011;26642;55.766;37.828;2024-03-23T04:05:32;15.95;;;11.30;;
40635;SDS011;26642;55.766;37.828;2024-03-23T04:07:58;18.17;;;11.25;;
40635;SDS011;26642;55.766;37.828;2024-03-23T04:10:24;15.35;;;10.57;;
40635;SDS011;26642;55.766;37.828;2024-03-23T04:12:52;16.23;;;11.30;;
40635;SDS011;26642;55.766;37.828;2024-03-23T04:15:19;16.25;;;11.63;;
40635;SDS011;26642;55.766;37.828;2024-03-23T04:17:45;17.08;;;11.23;;
40635;SDS011;26642;55.766;37.828;2024-03-23T04:20:12;17.00;;;10.95;;
40635;SDS011;26642;55.766;37.828;2024-03-23T04:22:42;16.17;;;11.05;;
40635;SDS011;26642;55.766;37.828;2024-03-23T04:25:08;17.45;;;11.68;;
40635;SDS011;26642;55.766;37.828;2024-03-23T04:27:36;17.58;;;11.25;;
40635;SDS011;26642;55.766;37.828;2024-03-23T04:30:03;15.38;;;10.88;;
40635;SDS011;26642;55.766;37.828;2024-03-23T04:32:35;14.65;;;10.00;;
40635;SDS011;26642;55.766;37.828;2024-03-23T04:35:01;14.75;;;10.52;;
40635;SDS011;26642;55.766;37.828;2024-03-23T04:37:31;15.85;;;11.45;;
40635;SDS011;26642;55.766;37.828;2024-03-23T04:39:59;13.70;;;10.55;;
40635;SDS011;26642;55.766;37.828;2024-03-23T04:42:27;15.68;;;10.57;;
40635;SDS011;26642;55.766;37.828;2024-03-23T04:44:53;15.25;;;11.05;;
40635;SDS011;26642;55.766;37.828;2024-03-23T04:47:19;17.15;;;11.13;;
40635;SDS011;26642;55.766;37.828;2024-03-23T04:49:46;15.15;;;10.80;;
40635;SDS011;26642;55.766;37.828;2024-03-23T04:52:12;15.05;;;10.63;;
40635;SDS011;26642;55.766;37.828;2024-03-23T04:54:39;17.05;;;10.77;;
40635;SDS011;26642;55.766;37.828;2024-03-23T04:57:08;14.35;;;10.75;;
40635;SDS011;26642;55.766;37.828;2024-03-23T04:59:34;14.60;;;10.05;;
40635;SDS011;26642;55.766;37.828;2024-03-23T05:02:01;14.88;;;10.48;;
40635;SDS011;26642;55.766;37.828;2024-03-23T05:04:28;14.75;;;10.02;;
40635;SDS011;26642;55.766;37.828;2024-03-23T05:06:54;15.05;;;10.18;;
40635;SDS011;26642;55.766;37.828;2024-03-23T05:09:22;16.00;;;10.73;;
40635;SDS011;26642;55.766;37.828;2024-03-23T05:11:48;14.65;;;10.27;;
40635;SDS011;26642;55.766;37.828;2024-03-23T05:14:15;14.80;;;10.98;;
40635;SDS011;26642;55.766;37.828;2024-03-23T05:16:41;14.18;;;10.48;;
40635;SDS011;26642;55.766;37.828;2024-03-23T05:19:07;13.13;;;10.18;;
40635;SDS011;26642;55.766;37.828;2024-03-23T05:21:34;14.15;;;9.68;;
40635;SDS011;26642;55.766;37.828;2024-03-23T05:24:00;14.32;;;10.05;;
40635;SDS011;26642;55.766;37.828;2024-03-23T05:26:28;13.27;;;10.18;;
40635;SDS011;26642;55.766;37.828;2024-03-23T05:28:54;18.98;;;9.57;;
40635;SDS011;26642;55.766;37.828;2024-03-23T05:31:24;14.63;;;10.50;;
40635;SDS011;26642;55.766;37.828;2024-03-23T05:33:51;14.68;;;9.57;;
40635;SDS011;26642;55.766;37.828;2024-03-23T05:36:17;13.32;;;9.25;;
40635;SDS011;26642;55.766;37.828;2024-03-23T05:38:44;13.05;;;9.65;;
40635;SDS011;26642;55.766;37.828;2024-03-23T05:41:10;12.38;;;8.48;;
40635;SDS011;26642;55.766;37.828;2024-03-23T05:43:37;13.52;;;8.52;;
40635;SDS011;26642;55.766;37.828;2024-03-23T05:46:03;13.80;;;9.27;;
40635;SDS011;26642;55.766;37.828;2024-03-23T05:48:30;12.50;;;9.38;;
40635;SDS011;26642;55.766;37.828;2024-03-23T05:50:57;13.85;;;8.55;;
40635;SDS011;26642;55.766;37.828;2024-03-23T05:53:24;12.82;;;8.88;;
40635;SDS011;26642;55.766;37.828;2024-03-23T05:55:50;12.10;;;8.70;;
40635;SDS011;26642;55.766;37.828;2024-03-23T05:58:19;12.00;;;8.52;;
40635;SDS011;26642;55.766;37.828;2024-03-23T06:00:45;11.48;;;8.63;;
40635;SDS011;26642;55.766;37.828;2024-03-23T06:03:12;12.32;;;8.70;;
40635;SDS011;26642;55.766;37.828;2024-03-23T06:05:38;11.07;;;7.78;;
40635;SDS011;26642;55.766;37.828;2024-03-23T06:08:05;12.32;;;8.95;;
40635;SDS011;26642;55.766;37.828;2024-03-23T06:10:34;10.90;;;7.53;;
40635;SDS011;26642;55.766;37.828;2024-03-23T06:13:01;12.32;;;8.43;;
40635;SDS011;26642;55.766;37.828;2024-03-23T06:15:27;11.07;;;7.82;;
40635;SDS011;26642;55.766;37.828;2024-03-23T06:17:54;23.02;;;7.90;;
40635;SDS011;26642;55.766;37.828;2024-03-23T06:20:20;9.45;;;7.45;;
40635;SDS011;26642;55.766;37.828;2024-03-23T06:22:46;13.85;;;7.80;;
40635;SDS011;26642;55.766;37.828;2024-03-23T06:25:12;12.15;;;7.65;;
40635;SDS011;26642;55.766;37.828;2024-03-23T06:27:39;12.75;;;7.40;;
40635;SDS011;26642;55.766;37.828;2024-03-23T06:30:24;11.40;;;7.60;;
40635;SDS011;26642;55.766;37.828;2024-03-23T06:32:52;9.82;;;7.47;;
40635;SDS011;26642;55.766;37.828;2024-03-23T06:35:18;10.73;;;6.88;;
40635;SDS011;26642;55.766;37.828;2024-03-23T06:37:45;10.10;;;7.20;;
40635;SDS011;26642;55.766;37.828;2024-03-23T06:40:11;12.32;;;7.22;;
40635;SDS011;26642;55.766;37.828;2024-03-23T06:42:37;11.70;;;7.07;;
40635;SDS011;26642;55.766;37.828;2024-03-23T06:45:05;11.43;;;7.05;;
40635;SDS011;26642;55.766;37.828;2024-03-23T06:47:31;11.82;;;6.45;;
40635;SDS011;26642;55.766;37.828;2024-03-23T06:50:01;11.05;;;7.32;;
40635;SDS011;26642;55.766;37.828;2024-03-23T06:52:29;8.85;;;6.85;;
40635;SDS011;26642;55.766;37.828;2024-03-23T06:54:55;8.75;;;7.15;;
40635;SDS011;26642;55.766;37.828;2024-03-23T06:57:22;9.52;;;6.97;;
40635;SDS011;26642;55.766;37.828;2024-03-23T06:59:48;9.95;;;7.30;;
40635;SDS011;26642;55.766;37.828;2024-03-23T07:02:15;9.98;;;7.40;;
40635;SDS011;26642;55.766;37.828;2024-03-23T07:04:41;11.00;;;7.22;;
40635;SDS011;26642;55.766;37.828;2024-03-23T07:07:07;6.80;;;6.10;;
40635;SDS011;26642;55.766;37.828;2024-03-23T07:09:34;7.60;;;6.53;;
40635;SDS011;26642;55.766;37.828;2024-03-23T07:12:00;9.45;;;6.07;;
40635;SDS011;26642;55.766;37.828;2024-03-23T07:14:26;8.95;;;6.07;;
40635;SDS011;26642;55.766;37.828;2024-03-23T07:16:53;8.60;;;5.88;;
40635;SDS011;26642;55.766;37.828;2024-03-23T07:19:19;6.43;;;5.25;;
40635;SDS011;26642;55.766;37.828;2024-03-23T07:21:45;9.25;;;6.03;;
40635;SDS011;26642;55.766;37.828;2024-03-23T07:24:13;6.90;;;5.47;;
40635;SDS011;26642;55.766;37.828;2024-03-23T07:26:39;9.52;;;6.05;;
40635;SDS011;26642;55.766;37.828;2024-03-23T07:29:06;9.27;;;5.95;;
40635;SDS011;26642;55.766;37.828;2024-03-23T07:31:32;8.13;;;5.93;;
40635;SDS011;26642;55.766;37.828;2024-03-23T07:33:59;7.55;;;6.03;;
40635;SDS011;26642;55.766;37.828;2024-03-23T07:36:25;7.80;;;5.80;;
40635;SDS011;26642;55.766;37.828;2024-03-23T07:38:51;7.97;;;5.70;;
40635;SDS011;26642;55.766;37.828;2024-03-23T07:41:19;7.35;;;5.80;;
40635;SDS011;26642;55.766;37.828;2024-03-23T07:43:46;6.65;;;5.60;;
40635;SDS011;26642;55.766;37.828;2024-03-23T07:46:14;7.93;;;5.60;;
40635;SDS011;26642;55.766;37.828;2024-03-23T07:48:40;7.60;;;5.72;;
40635;SDS011;26642;55.766;37.828;2024-03-23T07:51:11;6.00;;;5.38;;
40635;SDS011;26642;55.766;37.828;2024-03-23T07:53:37;6.43;;;5.13;;
40635;SDS011;26642;55.766;37.828;2024-03-23T07:56:08;6.95;;;5.30;;
40635;SDS011;26642;55.766;37.828;2024-03-23T07:58:37;7.78;;;5.68;;
40635;SDS011;26642;55.766;37.828;2024-03-23T08:01:08;7.43;;;5.15;;
40635;SDS011;26642;55.766;37.828;2024-03-23T08:03:35;6.53;;;4.85;;
40635;SDS011;26642;55.766;37.828;2024-03-23T08:06:08;9.02;;;5.10;;
40635;SDS011;26642;55.766;37.828;2024-03-23T08:08:35;16.67;;;5.90;;
40635;SDS011;26642;55.766;37.828;2024-03-23T08:11:01;5.72;;;5.03;;
40635;SDS011;26642;55.766;37.828;2024-03-23T08:13:28;8.63;;;5.55;;
40635;SDS011;26642;55.766;37.828;2024-03-23T08:15:58;6.80;;;5.38;;
40635;SDS011;26642;55.766;37.828;2024-03-23T08:18:25;9.63;;;5.30;;
40635;SDS011;26642;55.766;37.828;2024-03-23T08:20:58;8.35;;;5.53;;
40635;SDS011;26642;55.766;37.828;2024-03-23T08:23:27;7.45;;;5.20;;
40635;SDS011;26642;55.766;37.828;2024-03-23T08:25:57;9.23;;;5.22;;
40635;SDS011;26642;55.766;37.828;2024-03-23T08:28:24;7.10;;;5.25;;
40635;SDS011;26642;55.766;37.828;2024-03-23T08:30:51;6.57;;;4.75;;
40635;SDS011;26642;55.766;37.828;2024-03-23T08:33:18;8.82;;;4.78;;
40635;SDS011;26642;55.766;37.828;2024-03-23T08:35:53;6.32;;;5.45;;
40635;SDS011;26642;55.766;37.828;2024-03-23T08:38:21;5.22;;;4.57;;
40635;SDS011;26642;55.766;37.828;2024-03-23T08:40:47;8.70;;;5.05;;
40635;SDS011;26642;55.766;37.828;2024-03-23T08:43:13;6.07;;;4.90;;
40635;SDS011;26642;55.766;37.828;2024-03-23T08:45:40;6.97;;;4.50;;
40635;SDS011;26642;55.766;37.828;2024-03-23T08:48:06;6.28;;;5.15;;
40635;SDS011;26642;55.766;37.828;2024-03-23T08:50:33;4.50;;;4.10;;
40635;SDS011;26642;55.766;37.828;2024-03-23T08:52:59;6.00;;;4.70;;
40635;SDS011;26642;55.766;37.828;2024-03-23T08:55:26;7.57;;;5.57;;
40635;SDS011;26642;55.766;37.828;2024-03-23T08:57:52;4.45;;;4.05;;
40635;SDS011;26642;55.766;37.828;2024-03-23T09:00:18;6.07;;;4.60;;
40635;SDS011;26642;55.766;37.828;2024-03-23T09:02:47;7.10;;;4.05;;
40635;SDS011;26642;55.766;37.828;2024-03-23T09:05:13;5.95;;;4.60;;
40635;SDS011;26642;55.766;37.828;2024-03-23T09:07:39;5.50;;;4.45;;
40635;SDS011;26642;55.766;37.828;2024-03-23T09:10:06;5.60;;;4.28;;
40635;SDS011;26642;55.766;37.828;2024-03-23T09:12:33;7.00;;;4.65;;
40635;SDS011;26642;55.766;37.828;2024-03-23T09:14:59;4.68;;;4.10;;
40635;SDS011;26642;55.766;37.828;2024-03-23T09:17:25;6.03;;;4.60;;
40635;SDS011;26642;55.766;37.828;2024-03-23T09:19:52;5.28;;;3.92;;
40635;SDS011;26642;55.766;37.828;2024-03-23T09:22:18;6.10;;;4.63;;
40635;SDS011;26642;55.766;37.828;2024-03-23T09:24:44;7.63;;;4.30;;
40635;SDS011;26642;55.766;37.828;2024-03-23T09:27:11;5.43;;;4.20;;
40635;SDS011;26642;55.766;37.828;2024-03-23T09:29:37;4.68;;;4.28;;
40635;SDS011;26642;55.766;37.828;2024-03-23T09:32:04;5.93;;;4.65;;
40635;SDS011;26642;55.766;37.828;2024-03-23T09:34:31;6.65;;;3.90;;
40635;SDS011;26642;55.766;37.828;2024-03-23T09:36:57;4.93;;;3.88;;
40635;SDS011;26642;55.766;37.828;2024-03-23T09:39:24;5.70;;;4.18;;
40635;SDS011;26642;55.766;37.828;2024-03-23T09:41:50;5.50;;;3.78;;
40635;SDS011;26642;55.766;37.828;2024-03-23T09:44:17;6.18;;;3.90;;
40635;SDS011;26642;55.766;37.828;2024-03-23T09:46:43;5.57;;;3.75;;
40635;SDS011;26642;55.766;37.828;2024-03-23T09:49:09;5.53;;;4.03;;
40635;SDS011;26642;55.766;37.828;2024-03-23T09:51:36;5.18;;;3.97;;
40635;SDS011;26642;55.766;37.828;2024-03-23T09:54:03;8.82;;;4.05;;
40635;SDS011;26642;55.766;37.828;2024-03-23T09:56:29;5.50;;;3.78;;
40635;SDS011;26642;55.766;37.828;2024-03-23T09:59:02;5.80;;;3.97;;
40635;SDS011;26642;55.766;37.828;2024-03-23T10:01:32;5.15;;;3.72;;
40635;SDS011;26642;55.766;37.828;2024-03-23T10:04:35;5.60;;;3.50;;
40635;SDS011;26642;55.766;37.828;2024-03-23T10:07:11;4.60;;;3.67;;
40635;SDS011;26642;55.766;37.828;2024-03-23T10:09:38;5.80;;;4.07;;
40635;SDS011;26642;55.766;37.828;2024-03-23T10:12:11;4.15;;;3.50;;
40635;SDS011;26642;55.766;37.828;2024-03-23T10:14:39;8.52;;;3.70;;
40635;SDS011;26642;55.766;37.828;2024-03-23T10:17:15;6.03;;;4.18;;
40635;SDS011;26642;55.766;37.828;2024-03-23T10:22:17;4.30;;;3.67;;
40635;SDS011;26642;55.766;37.828;2024-03-23T10:24:43;5.03;;;3.47;;
40635;SDS011;26642;55.766;37.828;2024-03-23T10:27:12;4.82;;;3.60;;
40635;SDS011;26642;55.766;37.828;2024-03-23T10:29:41;6.07;;;3.80;;
40635;SDS011;26642;55.766;37.828;2024-03-23T10:32:10;5.75;;;3.58;;
40635;SDS011;26642;55.766;37.828;2024-03-23T10:34:37;4.97;;;3.90;;
40635;SDS011;26642;55.766;37.828;2024-03-23T10:37:04;5.38;;;3.65;;
40635;SDS011;26642;55.766;37.828;2024-03-23T10:39:34;5.25;;;3.50;;
40635;SDS011;26642;55.766;37.828;2024-03-23T10:42:07;4.72;;;3.50;;
40635;SDS011;26642;55.766;37.828;2024-03-23T10:44:35;5.22;;;3.55;;
40635;SDS011;26642;55.766;37.828;2024-03-23T10:47:02;4.85;;;3.70;;
40635;SDS011;26642;55.766;37.828;2024-03-23T10:49:29;6.00;;;3.97;;
40635;SDS011;26642;55.766;37.828;2024-03-23T10:51:58;7.57;;;3.70;;
40635;SDS011;26642;55.766;37.828;2024-03-23T10:54:25;6.78;;;3.55;;
40635;SDS011;26642;55.766;37.828;2024-03-23T10:56:56;6.97;;;3.75;;
40635;SDS011;26642;55.766;37.828;2024-03-23T10:59:24;5.88;;;3.80;;
40635;SDS011;26642;55.766;37.828;2024-03-23T11:02:00;5.43;;;4.10;;
40635;SDS011;26642;55.766;37.828;2024-03-23T11:04:33;5.53;;;3.88;;
40635;SDS011;26642;55.766;37.828;2024-03-23T11:07:00;6.95;;;3.88;;
40635;SDS011;26642;55.766;37.828;2024-03-23T11:09:39;7.50;;;4.22;;
40635;SDS011;26642;55.766;37.828;2024-03-23T11:15:04;5.05;;;3.95;;
40635;SDS011;26642;55.766;37.828;2024-03-23T11:17:31;7.15;;;3.75;;
40635;SDS011;26642;55.766;37.828;2024-03-23T11:22:43;8.77;;;4.00;;
40635;SDS011;26642;55.766;37.828;2024-03-23T11:25:16;9.65;;;4.85;;
40635;SDS011;26642;55.766;37.828;2024-03-23T11:27:43;7.18;;;4.35;;
40635;SDS011;26642;55.766;37.828;2024-03-23T11:32:41;8.45;;;4.10;;
40635;SDS011;26642;55.766;37.828;2024-03-23T11:35:07;6.70;;;4.18;;
40635;SDS011;26642;55.766;37.828;2024-03-23T11:37:35;13.35;;;4.38;;
40635;SDS011;26642;55.766;37.828;2024-03-23T11:40:16;8.48;;;4.38;;
40635;SDS011;26642;55.766;37.828;2024-03-23T11:42:42;7.55;;;4.57;;
40635;SDS011;26642;55.766;37.828;2024-03-23T11:45:09;9.60;;;3.45;;
40635;SDS011;26642;55.766;37.828;2024-03-23T11:47:35;6.28;;;3.10;;
40635;SDS011;26642;55.766;37.828;2024-03-23T11:50:02;6.63;;;3.47;;
40635;SDS011;26642;55.766;37.828;2024-03-23T11:52:28;7.32;;;4.07;;
40635;SDS011;26642;55.766;37.828;2024-03-23T11:55:05;9.20;;;4.10;;
40635;SDS011;26642;55.766;37.828;2024-03-23T11:57:33;8.48;;;4.60;;
40635;SDS011;26642;55.766;37.828;2024-03-23T11:59:59;11.55;;;4.47;;
40635;SDS011;26642;55.766;37.828;2024-03-23T12:02:26;7.00;;;4.22;;
40635;SDS011;26642;55.766;37.828;2024-03-23T12:04:53;7.53;;;4.80;;
40635;SDS011;26642;55.766;37.828;2024-03-23T12:07:20;6.72;;;4.72;;
40635;SDS011;26642;55.766;37.828;2024-03-23T12:10:04;6.10;;;4.80;;
40635;SDS011;26642;55.766;37.828;2024-03-23T12:12:34;13.50;;;5.18;;
40635;SDS011;26642;55.766;37.828;2024-03-23T12:15:02;7.78;;;5.07;;
40635;SDS011;26642;55.766;37.828;2024-03-23T12:17:28;9.23;;;5.50;;
40635;SDS011;26642;55.766;37.828;2024-03-23T12:19:55;7.13;;;5.10;;
40635;SDS011;26642;55.766;37.828;2024-03-23T12:22:21;7.22;;;5.78;;
40635;SDS011;26642;55.766;37.828;2024-03-23T12:24:48;11.50;;;6.30;;
40635;SDS011;26642;55.766;37.828;2024-03-23T12:27:14;10.82;;;5.95;;
40635;SDS011;26642;55.766;37.828;2024-03-23T12:29:41;6.80;;;5.65;;
40635;SDS011;26642;55.766;37.828;2024-03-23T12:32:11;9.90;;;6.00;;
40635;SDS011;26642;55.766;37.828;2024-03-23T12:34:37;7.88;;;6.10;;
40635;SDS011;26642;55.766;37.828;2024-03-23T12:37:03;10.88;;;5.63;;
40635;SDS011;26642;55.766;37.828;2024-03-23T12:39:31;9.73;;;6.00;;
40635;SDS011;26642;55.766;37.828;2024-03-23T12:45:20;9.75;;;6.32;;
40635;SDS011;26642;55.766;37.828;2024-03-23T12:47:46;7.32;;;5.55;;
40635;SDS011;26642;55.766;37.828;2024-03-23T12:50:12;8.48;;;6.20;;
40635;SDS011;26642;55.766;37.828;2024-03-23T12:52:39;8.88;;;6.38;;
40635;SDS011;26642;55.766;37.828;2024-03-23T12:55:05;10.05;;;6.80;;
40635;SDS011;26642;55.766;37.828;2024-03-23T12:57:32;9.88;;;6.18;;
40635;SDS011;26642;55.766;37.828;2024-03-23T12:59:59;8.75;;;6.75;;
40635;SDS011;26642;55.766;37.828;2024-03-23T13:02:28;9.10;;;6.90;;
40635;SDS011;26642;55.766;37.828;2024-03-23T13:05:05;10.10;;;6.78;;
40635;SDS011;26642;55.766;37.828;2024-03-23T13:07:42;8.80;;;6.45;;
40635;SDS011;26642;55.766;37.828;2024-03-23T13:10:09;9.18;;;6.35;;
40635;SDS011;26642;55.766;37.828;2024-03-23T13:12:36;10.63;;;6.60;;
40635;SDS011;26642;55.766;37.828;2024-03-23T13:15:09;9.30;;;6.20;;
40635;SDS011;26642;55.766;37.828;2024-03-23T13:17:35;9.52;;;6.35;;
40635;SDS011;26642;55.766;37.828;2024-03-23T13:20:02;10.18;;;7.03;;
40635;SDS011;26642;55.766;37.828;2024-03-23T13:22:32;12.07;;;7.30;;
40635;SDS011;26642;55.766;37.828;2024-03-23T13:24:58;8.90;;;7.05;;
40635;SDS011;26642;55.766;37.828;2024-03-23T13:27:30;9.93;;;6.95;;
40635;SDS011;26642;55.766;37.828;2024-03-23T13:30:04;9.48;;;6.63;;
40635;SDS011;26642;55.766;37.828;2024-03-23T13:32:31;8.77;;;6.13;;
40635;SDS011;26642;55.766;37.828;2024-03-23T13:34:57;10.63;;;6.68;;
40635;SDS011;26642;55.766;37.828;2024-03-23T13:37:23;8.65;;;6.72;;
40635;SDS011;26642;55.766;37.828;2024-03-23T13:39:49;8.57;;;6.90;;
40635;SDS011;26642;55.766;37.828;2024-03-23T13:42:16;7.88;;;6.60;;
40635;SDS011;26642;55.766;37.828;2024-03-23T13:45:01;9.63;;;6.50;;
40635;SDS011;26642;55.766;37.828;2024-03-23T13:47:27;9.65;;;6.70;;
40635;SDS011;26642;55.766;37.828;2024-03-23T13:49:53;7.10;;;5.82;;
40635;SDS011;26642;55.766;37.828;2024-03-23T13:52:20;8.45;;;6.35;;
40635;SDS011;26642;55.766;37.828;2024-03-23T13:54:51;7.82;;;6.35;;
40635;SDS011;26642;55.766;37.828;2024-03-23T13:57:17;12.30;;;6.38;;
40635;SDS011;26642;55.766;37.828;2024-03-23T13:59:46;8.75;;;6.75;;
40635;SDS011;26642;55.766;37.828;2024-03-23T14:02:14;12.40;;;6.38;;
40635;SDS011;26642;55.766;37.828;2024-03-23T14:04:40;8.23;;;6.10;;
40635;SDS011;26642;55.766;37.828;2024-03-23T14:07:07;8.13;;;6.18;;
40635;SDS011;26642;55.766;37.828;2024-03-23T14:09:34;6.80;;;5.10;;
40635;SDS011;26642;55.766;37.828;2024-03-23T14:12:00;8.23;;;5.75;;
40635;SDS011;26642;55.766;37.828;2024-03-23T14:14:27;8.65;;;5.32;;
40635;SDS011;26642;55.766;37.828;2024-03-23T14:16:53;8.80;;;6.15;;
40635;SDS011;26642;55.766;37.828;2024-03-23T14:19:20;7.38;;;5.97;;
40635;SDS011;26642;55.766;37.828;2024-03-23T14:21:46;8.27;;;5.43;;
40635;SDS011;26642;55.766;37.828;2024-03-23T14:24:12;7.80;;;5.38;;
40635;SDS011;26642;55.766;37.828;2024-03-23T14:26:39;7.55;;;5.28;;
40635;SDS011;26642;55.766;37.828;2024-03-23T14:29:06;6.45;;;4.97;;
40635;SDS011;26642;55.766;37.828;2024-03-23T14:31:34;6.90;;;5.20;;
40635;SDS011;26642;55.766;37.828;2024-03-23T14:34:00;7.25;;;5.43;;
40635;SDS011;26642;55.766;37.828;2024-03-23T14:36:27;8.35;;;5.40;;
40635;SDS011;26642;55.766;37.828;2024-03-23T14:38:53;9.23;;;5.45;;
40635;SDS011;26642;55.766;37.828;2024-03-23T14:41:20;12.02;;;5.00;;
40635;SDS011;26642;55.766;37.828;2024-03-23T14:43:46;10.30;;;5.55;;
40635;SDS011;26642;55.766;37.828;2024-03-23T14:46:15;8.13;;;5.13;;
40635;SDS011;26642;55.766;37.828;2024-03-23T14:48:42;6.32;;;5.30;;
40635;SDS011;26642;55.766;37.828;2024-03-23T14:51:09;6.35;;;4.80;;
40635;SDS011;26642;55.766;37.828;2024-03-23T14:53:36;6.47;;;5.20;;
40635;SDS011;26642;55.766;37.828;2024-03-23T14:56:05;9.63;;;5.22;;
40635;SDS011;26642;55.766;37.828;2024-03-23T14:58:32;6.28;;;5.10;;
40635;SDS011;26642;55.766;37.828;2024-03-23T15:01:03;8.55;;;5.53;;
40635;SDS011;26642;55.766;37.828;2024-03-23T15:03:29;11.88;;;6.10;;
40635;SDS011;26642;55.766;37.828;2024-03-23T15:05:56;8.85;;;6.53;;
40635;SDS011;26642;55.766;37.828;2024-03-23T15:08:23;10.30;;;6.80;;
40635;SDS011;26642;55.766;37.828;2024-03-23T15:10:49;10.77;;;7.18;;
40635;SDS011;26642;55.766;37.828;2024-03-23T15:13:16;8.05;;;7.03;;
40635;SDS011;26642;55.766;37.828;2024-03-23T15:15:42;11.43;;;7.43;;
40635;SDS011;26642;55.766;37.828;2024-03-23T15:18:13;9.15;;;6.70;;
40635;SDS011;26642;55.766;37.828;2024-03-23T15:20:51;8.10;;;7.13;;
40635;SDS011;26642;55.766;37.828;2024-03-23T15:23:17;8.63;;;7.05;;
40635;SDS011;26642;55.766;37.828;2024-03-23T15:25:44;6.97;;;6.15;;
40635;SDS011;26642;55.766;37.828;2024-03-23T15:28:10;10.43;;;6.47;;
40635;SDS011;26642;55.766;37.828;2024-03-23T15:30:36;11.35;;;7.47;;